createdAt,value
2023-03-15T00:02:26.271Z,6.95
2023-03-15T00:04:54.946Z,6.95
2023-03-15T00:07:25.846Z,6.95
2023-03-15T00:09:54.807Z,6.95
2023-03-15T00:12:23.463Z,6.96
2023-03-15T00:14:52.010Z,6.96
2023-03-15T00:17:20.120Z,6.91
2023-03-15T00:19:49.992Z,6.88
2023-03-15T00:22:18.098Z,6.87
2023-03-15T00:24:46.332Z,6.85
2023-03-15T00:27:14.446Z,6.83
2023-03-15T00:29:42.534Z,6.81
2023-03-15T00:32:11.161Z,6.78
2023-03-15T00:34:40.815Z,6.75
2023-03-15T00:37:09.058Z,6.76
2023-03-15T00:39:38.733Z,6.77
2023-03-15T00:42:09.835Z,6.78
2023-03-15T00:44:37.994Z,6.77
2023-03-15T00:47:06.225Z,6.78
2023-03-15T00:49:34.341Z,6.79
2023-03-15T00:52:04.961Z,6.78
2023-03-15T00:54:34.197Z,6.77
2023-03-15T00:57:03.235Z,6.75
2023-03-15T00:59:35.165Z,6.74
2023-03-15T01:02:07.272Z,6.74
2023-03-15T01:04:35.464Z,6.72
2023-03-15T01:07:05.447Z,6.68
2023-03-15T01:09:33.587Z,6.62
2023-03-15T01:12:01.750Z,6.60
2023-03-15T01:14:32.285Z,6.60
2023-03-15T01:17:00.377Z,6.62
2023-03-15T01:19:29.852Z,6.62
2023-03-15T01:21:57.953Z,6.59
2023-03-15T01:24:26.095Z,6.55
2023-03-15T01:26:54.178Z,6.51
2023-03-15T01:29:22.407Z,6.43
2023-03-15T01:31:51.159Z,6.36
2023-03-15T01:34:19.421Z,6.32
2023-03-15T01:36:52.586Z,6.24
2023-03-15T01:39:22.232Z,6.19
2023-03-15T01:41:50.329Z,6.15
2023-03-15T01:44:20.281Z,6.12
2023-03-15T01:46:49.366Z,6.08
2023-03-15T01:49:24.483Z,6.07
2023-03-15T01:52:15.829Z,6.04
2023-03-15T01:55:02.820Z,6.00
2023-03-15T01:57:41.261Z,5.96
2023-03-15T02:00:19.874Z,5.93
2023-03-15T02:02:56.556Z,5.89
2023-03-15T02:05:35.681Z,5.86
2023-03-15T02:08:09.017Z,5.82
2023-03-15T02:10:45.446Z,5.80
2023-03-15T02:13:19.399Z,5.80
2023-03-15T02:15:47.587Z,5.79
2023-03-15T02:18:22.559Z,5.77
2023-03-15T02:21:18.160Z,5.76
2023-03-15T02:23:57.574Z,5.74
2023-03-15T02:26:52.992Z,5.71
2023-03-15T02:29:24.813Z,5.65
2023-03-15T02:31:54.954Z,5.62
2023-03-15T02:34:26.427Z,5.57
2023-03-15T02:36:55.703Z,5.54
2023-03-15T02:39:24.530Z,5.53
2023-03-15T02:41:56.850Z,5.51
2023-03-15T02:44:35.349Z,5.48
2023-03-15T02:47:18.990Z,5.45
2023-03-15T02:49:52.673Z,5.43
2023-03-15T02:52:22.513Z,5.40
2023-03-15T02:54:50.787Z,5.39
2023-03-15T02:57:20.681Z,5.38
2023-03-15T02:59:51.057Z,5.37
2023-03-15T03:02:20.029Z,5.36
2023-03-15T03:04:48.251Z,5.35
2023-03-15T03:07:16.582Z,5.34
2023-03-15T03:09:48.493Z,5.33
2023-03-15T03:12:18.234Z,5.29
2023-03-15T03:14:46.399Z,5.28
2023-03-15T03:17:17.959Z,5.26
2023-03-15T03:19:47.129Z,5.24
2023-03-15T03:22:16.023Z,5.21
2023-03-15T03:24:45.972Z,5.20
2023-03-15T03:27:15.738Z,5.17
2023-03-15T03:29:45.223Z,5.14
2023-03-15T03:32:13.398Z,5.14
2023-03-15T03:34:41.522Z,5.12
2023-03-15T03:37:09.912Z,5.11
2023-03-15T03:39:52.231Z,5.09
2023-03-15T03:42:20.371Z,5.07
2023-03-15T03:44:50.428Z,5.08
2023-03-15T03:47:18.667Z,5.06
2023-03-15T03:49:46.778Z,5.05
2023-03-15T03:52:15.058Z,5.04
2023-03-15T03:54:43.304Z,5.03
2023-03-15T03:57:11.708Z,5.02
2023-03-15T03:59:40.383Z,5.00
2023-03-15T04:02:10.285Z,4.97
2023-03-15T04:04:41.826Z,4.93
2023-03-15T04:07:17.021Z,4.90
2023-03-15T04:09:45.662Z,4.87
2023-03-15T04:12:14.315Z,4.83
2023-03-15T04:14:44.075Z,4.81
2023-03-15T04:17:13.238Z,4.79
2023-03-15T04:19:47.036Z,4.77
2023-03-15T04:22:16.884Z,4.75
2023-03-15T04:25:07.921Z,4.71
2023-03-15T04:27:59.762Z,4.69
2023-03-15T04:30:49.246Z,4.66
2023-03-15T04:34:07.182Z,4.63
2023-03-15T04:36:56.783Z,4.60
2023-03-15T04:40:10.052Z,4.57
2023-03-15T04:42:56.901Z,4.52
2023-03-15T04:45:39.732Z,4.49
2023-03-15T04:48:33.324Z,4.45
2023-03-15T04:51:21.826Z,4.42
2023-03-15T04:54:36.556Z,4.41
2023-03-15T04:57:55.482Z,4.42
2023-03-15T05:01:05.242Z,4.43
2023-03-15T05:04:00.244Z,4.43
2023-03-15T05:06:47.138Z,4.44
2023-03-15T05:09:39.779Z,4.45
2023-03-15T05:12:24.502Z,4.43
2023-03-15T05:15:18.762Z,4.41
2023-03-15T05:18:30.946Z,4.40
2023-03-15T05:21:30.328Z,4.41
2023-03-15T05:24:10.262Z,4.42
2023-03-15T05:26:54.254Z,4.44
2023-03-15T05:30:05.658Z,4.46
2023-03-15T05:33:24.691Z,4.50
2023-03-15T05:36:42.930Z,4.55
2023-03-15T05:39:17.501Z,4.61
2023-03-15T05:42:02.118Z,4.63
2023-03-15T05:44:57.555Z,4.65
2023-03-15T05:47:44.154Z,4.68
2023-03-15T05:50:29.644Z,4.71
2023-03-15T05:53:16.143Z,4.75
2023-03-15T05:56:00.047Z,4.78
2023-03-15T05:58:30.939Z,4.82
2023-03-15T06:01:42.972Z,4.87
2023-03-15T06:04:16.740Z,4.91
2023-03-15T06:06:46.056Z,4.94
2023-03-15T06:09:14.252Z,4.98
2023-03-15T06:11:42.514Z,5.01
2023-03-15T06:14:13.054Z,5.07
2023-03-15T06:16:53.214Z,5.13
2023-03-15T06:19:22.445Z,5.20
2023-03-15T06:21:51.410Z,5.26
2023-03-15T06:24:26.666Z,5.30
2023-03-15T06:26:54.908Z,5.35
2023-03-15T06:29:23.971Z,5.38
2023-03-15T06:31:53.613Z,5.41
2023-03-15T06:34:22.374Z,5.42
2023-03-15T06:36:52.551Z,5.47
2023-03-15T06:39:20.687Z,5.52
2023-03-15T06:41:48.832Z,5.57
2023-03-15T06:44:20.593Z,5.62
2023-03-15T06:46:52.741Z,5.65
2023-03-15T06:49:20.962Z,5.68
2023-03-15T06:51:49.076Z,5.71
2023-03-15T06:54:17.365Z,5.73
2023-03-15T06:56:45.578Z,5.76
2023-03-15T06:59:13.942Z,5.77
2023-03-15T07:01:42.205Z,5.81
2023-03-15T07:04:10.423Z,5.84
2023-03-15T07:06:38.652Z,5.88
2023-03-15T07:09:07.388Z,5.93
2023-03-15T07:11:35.498Z,5.98
2023-03-15T07:14:03.642Z,6.03
2023-03-15T07:16:31.755Z,6.10
2023-03-15T07:19:00.169Z,6.17
2023-03-15T07:21:29.031Z,6.23
2023-03-15T07:23:57.159Z,6.29
2023-03-15T07:26:25.322Z,6.35
2023-03-15T07:28:53.442Z,6.43
2023-03-15T07:31:22.292Z,6.51
2023-03-15T07:33:50.579Z,6.61
2023-03-15T07:36:18.694Z,6.71
2023-03-15T07:38:46.797Z,6.80
2023-03-15T07:41:14.908Z,6.90
2023-03-15T07:43:50.313Z,7.01
2023-03-15T07:46:19.278Z,7.10
2023-03-15T07:48:47.582Z,7.20
2023-03-15T07:51:15.877Z,7.27
2023-03-15T07:53:44.012Z,7.33
2023-03-15T07:56:12.155Z,7.38
2023-03-15T07:58:40.264Z,7.41
2023-03-15T08:01:09.264Z,7.45
2023-03-15T08:03:37.680Z,7.49
2023-03-15T08:06:06.111Z,7.53
2023-03-15T08:08:34.263Z,7.57
2023-03-15T08:11:03.019Z,7.62
2023-03-15T08:13:31.112Z,7.67
2023-03-15T08:15:59.404Z,7.71
2023-03-15T08:18:29.105Z,7.77
2023-03-15T08:20:57.573Z,7.82
2023-03-15T08:23:25.773Z,7.86
2023-03-15T08:25:53.877Z,7.89
2023-03-15T08:28:21.984Z,7.94
2023-03-15T08:30:50.083Z,7.99
2023-03-15T08:33:18.258Z,8.04
2023-03-15T08:35:46.390Z,8.09
2023-03-15T08:38:14.538Z,8.14
2023-03-15T08:40:42.767Z,8.18
2023-03-15T08:43:10.947Z,8.22
2023-03-15T08:45:56.705Z,8.25
2023-03-15T08:48:27.267Z,8.28
2023-03-15T08:50:55.450Z,8.28
2023-03-15T08:53:23.608Z,8.31
2023-03-15T08:55:51.716Z,8.33
2023-03-15T08:58:19.805Z,8.36
2023-03-15T09:00:51.502Z,8.37
2023-03-15T09:03:20.324Z,8.40
2023-03-15T09:05:48.947Z,8.43
2023-03-15T09:08:21.132Z,8.46
2023-03-15T09:10:49.428Z,8.48
2023-03-15T09:13:17.549Z,8.51
2023-03-15T09:15:45.692Z,8.55
2023-03-15T09:18:13.804Z,8.59
2023-03-15T09:20:41.931Z,8.63
2023-03-15T09:23:10.446Z,8.67
2023-03-15T09:25:38.652Z,8.71
2023-03-15T09:28:10.597Z,8.74
2023-03-15T09:30:40.849Z,8.79
2023-03-15T09:33:09.680Z,8.83
2023-03-15T09:35:38.127Z,8.88
2023-03-15T09:38:06.254Z,8.91
2023-03-15T09:40:45.658Z,8.96
2023-03-15T09:43:52.627Z,9.00
2023-03-15T09:46:49.763Z,9.07
2023-03-15T09:49:28.480Z,9.14
2023-03-15T09:52:16.464Z,9.19
2023-03-15T09:55:04.781Z,9.23
2023-03-15T09:57:43.424Z,9.27
2023-03-15T10:00:19.445Z,9.29
2023-03-15T10:03:17.860Z,9.31
2023-03-15T10:05:54.342Z,9.30
2023-03-15T10:08:22.544Z,9.28
2023-03-15T10:11:14.753Z,9.30
2023-03-15T10:14:33.820Z,9.33
2023-03-15T10:17:13.131Z,9.38
2023-03-15T10:19:59.054Z,9.40
2023-03-15T10:22:40.957Z,9.43
2023-03-15T10:25:26.217Z,9.47
2023-03-15T10:28:06.188Z,9.51
2023-03-15T10:30:38.729Z,9.55
2023-03-15T10:33:36.350Z,9.59
2023-03-15T10:36:17.093Z,9.64
2023-03-15T10:38:46.405Z,9.69
2023-03-15T10:41:47.058Z,9.74
2023-03-15T10:44:19.625Z,9.78
2023-03-15T10:47:22.994Z,9.84
2023-03-15T10:49:59.586Z,9.87
2023-03-15T10:52:43.397Z,9.89
2023-03-15T10:55:20.204Z,9.93
2023-03-15T10:58:00.101Z,9.98
2023-03-15T11:00:34.372Z,10.05
2023-03-15T11:03:09.557Z,10.15
2023-03-15T11:05:45.914Z,10.27
2023-03-15T11:08:18.504Z,10.39
2023-03-15T11:10:56.249Z,10.51
2023-03-15T11:13:28.215Z,10.64
2023-03-15T11:16:22.174Z,10.75
2023-03-15T11:19:03.819Z,10.91
2023-03-15T11:21:35.699Z,11.08
2023-03-15T11:24:06.845Z,11.23
2023-03-15T11:26:38.733Z,11.39
2023-03-15T11:29:31.729Z,11.53
2023-03-15T11:32:10.795Z,11.63
2023-03-15T11:35:00.219Z,11.71
2023-03-15T11:37:45.805Z,11.76
2023-03-15T11:40:25.087Z,11.77
2023-03-15T11:43:15.849Z,11.75
2023-03-15T11:46:05.798Z,11.73
2023-03-15T11:49:03.343Z,11.73
2023-03-15T11:51:36.614Z,11.71
2023-03-15T11:54:15.538Z,11.70
2023-03-15T11:56:43.638Z,11.69
2023-03-15T11:59:28.539Z,11.70
2023-03-15T12:02:28.819Z,11.72
2023-03-15T12:05:01.775Z,11.74
2023-03-15T12:07:38.033Z,11.78
2023-03-15T12:10:31.482Z,11.81
2023-03-15T12:13:16.455Z,11.86
2023-03-15T12:15:47.117Z,11.90
2023-03-15T12:18:19.977Z,11.92
2023-03-15T12:21:17.377Z,11.94
2023-03-15T12:24:01.777Z,11.96
2023-03-15T12:26:33.549Z,12.00
2023-03-15T12:29:06.605Z,12.02
2023-03-15T12:32:03.984Z,12.04
2023-03-15T12:34:42.642Z,12.06
2023-03-15T12:37:44.104Z,12.12
2023-03-15T12:40:15.158Z,12.17
2023-03-15T12:42:43.225Z,12.20
2023-03-15T12:45:17.921Z,12.20
2023-03-15T12:48:09.928Z,12.21
2023-03-15T12:50:43.982Z,12.22
2023-03-15T12:53:15.489Z,12.25
2023-03-15T12:55:44.206Z,12.30
2023-03-15T12:58:15.872Z,12.35
2023-03-15T13:00:44.973Z,12.39
2023-03-15T13:03:26.828Z,12.43
2023-03-15T13:06:07.068Z,12.50
2023-03-15T13:08:53.975Z,12.55
2023-03-15T13:11:40.573Z,12.59
2023-03-15T13:14:18.795Z,12.60
2023-03-15T13:17:02.047Z,12.60
2023-03-15T13:19:41.899Z,12.57
2023-03-15T13:22:41.303Z,12.53
2023-03-15T13:25:43.125Z,12.50
2023-03-15T13:28:37.145Z,12.49
2023-03-15T13:31:25.988Z,12.45
2023-03-15T13:33:57.602Z,12.43
2023-03-15T13:36:46.898Z,12.42
2023-03-15T13:39:35.379Z,12.43
2023-03-15T13:42:19.703Z,12.43
2023-03-15T13:44:47.841Z,12.42
2023-03-15T13:47:23.933Z,12.39
2023-03-15T13:49:52.812Z,12.37
2023-03-15T13:52:20.985Z,12.34
2023-03-15T13:54:53.763Z,12.34
2023-03-15T13:57:23.776Z,12.34
2023-03-15T14:00:01.027Z,12.30
2023-03-15T14:02:45.862Z,12.28
2023-03-15T14:05:19.964Z,12.25
2023-03-15T14:07:51.187Z,12.25
2023-03-15T14:10:28.058Z,12.22
2023-03-15T14:12:57.985Z,12.13
2023-03-15T14:15:41.549Z,12.09
2023-03-15T14:18:09.649Z,12.06
2023-03-15T14:20:47.470Z,11.98
2023-03-15T14:23:18.844Z,11.91
2023-03-15T14:25:54.371Z,11.86
2023-03-15T14:28:24.569Z,11.80
2023-03-15T14:30:56.971Z,11.75
2023-03-15T14:33:41.332Z,11.68
2023-03-15T14:36:32.214Z,11.61
2023-03-15T14:39:00.644Z,11.57
2023-03-15T14:41:31.331Z,11.50
2023-03-15T14:44:02.967Z,11.44
2023-03-15T14:46:31.926Z,11.37
2023-03-15T14:49:00.944Z,11.31
2023-03-15T14:51:29.682Z,11.21
2023-03-15T14:53:59.600Z,11.12
2023-03-15T14:56:27.806Z,11.02
2023-03-15T14:58:56.027Z,10.95
2023-03-15T15:01:27.315Z,10.88
2023-03-15T15:04:01.590Z,10.81
2023-03-15T15:06:36.570Z,10.73
2023-03-15T15:09:06.972Z,10.66
2023-03-15T15:11:35.200Z,10.60
2023-03-15T15:14:03.382Z,10.56
2023-03-15T15:16:31.504Z,10.49
2023-03-15T15:18:59.681Z,10.40
2023-03-15T15:21:33.852Z,10.31
2023-03-15T15:24:05.456Z,10.22
2023-03-15T15:26:34.524Z,10.17
2023-03-15T15:29:03.137Z,10.13
2023-03-15T15:31:34.476Z,10.05
2023-03-15T15:34:02.926Z,9.98
2023-03-15T15:36:41.509Z,9.88
2023-03-15T15:39:23.314Z,9.77
2023-03-15T15:41:51.614Z,9.60
2023-03-15T15:44:22.624Z,9.49
2023-03-15T15:46:51.032Z,9.37
2023-03-15T15:49:19.861Z,9.24
2023-03-15T15:51:49.881Z,9.12
2023-03-15T15:54:27.644Z,9.02
2023-03-15T15:56:58.552Z,8.90
2023-03-15T15:59:27.293Z,8.82
2023-03-15T16:02:01.167Z,8.73
2023-03-15T16:04:30.992Z,8.68
2023-03-15T16:07:03.900Z,8.60
2023-03-15T16:09:37.757Z,8.53
2023-03-15T16:12:17.833Z,8.47
2023-03-15T16:14:45.951Z,8.40
2023-03-15T16:17:23.845Z,8.32
2023-03-15T16:19:52.869Z,8.26
2023-03-15T16:22:23.774Z,8.22
2023-03-15T16:24:57.343Z,8.15
2023-03-15T16:27:27.212Z,8.09
2023-03-15T16:29:56.024Z,8.06
2023-03-15T16:32:41.084Z,8.02
2023-03-15T16:35:16.482Z,8.02
2023-03-15T16:37:46.427Z,8.00
2023-03-15T16:40:34.363Z,7.96
2023-03-15T16:43:03.058Z,7.94
2023-03-15T16:45:31.180Z,7.92
2023-03-15T16:47:59.319Z,7.92
2023-03-15T16:50:27.917Z,7.92
2023-03-15T16:52:59.648Z,7.89
2023-03-15T16:55:32.988Z,7.88
2023-03-15T16:58:04.498Z,7.87
2023-03-15T17:00:32.644Z,7.86
2023-03-15T17:03:01.713Z,7.86
2023-03-15T17:05:32.660Z,7.86
2023-03-15T17:08:01.001Z,7.84
2023-03-15T17:10:31.890Z,7.83
2023-03-15T17:13:02.181Z,7.80
2023-03-15T17:15:31.993Z,7.79
2023-03-15T17:18:00.763Z,7.76
2023-03-15T17:20:29.821Z,7.73
2023-03-15T17:23:04.338Z,7.68
2023-03-15T17:25:34.383Z,7.63
2023-03-15T17:28:02.863Z,7.59
2023-03-15T17:30:37.174Z,7.56
2023-03-15T17:33:05.861Z,7.54
2023-03-15T17:35:44.235Z,7.52
2023-03-15T17:38:24.286Z,7.48
2023-03-15T17:40:53.607Z,7.45
2023-03-15T17:43:21.836Z,7.43
2023-03-15T17:45:52.357Z,7.43
2023-03-15T17:48:20.815Z,7.49
2023-03-15T17:50:48.975Z,7.51
2023-03-15T17:53:20.152Z,7.54
2023-03-15T17:55:49.188Z,7.55
2023-03-15T17:58:24.048Z,7.57
2023-03-15T18:00:54.832Z,7.57
2023-03-15T18:03:25.012Z,7.59
2023-03-15T18:05:53.337Z,7.62
2023-03-15T18:08:22.327Z,7.65
2023-03-15T18:10:51.948Z,7.66
2023-03-15T18:13:21.921Z,7.68
2023-03-15T18:15:51.411Z,7.70
2023-03-15T18:18:20.526Z,7.70
2023-03-15T18:20:49.641Z,7.70
2023-03-15T18:23:18.564Z,7.68
2023-03-15T18:25:46.672Z,7.70
2023-03-15T18:28:14.807Z,7.70
2023-03-15T18:30:44.259Z,7.68
2023-03-15T18:33:12.531Z,7.63
2023-03-15T18:35:40.660Z,7.60
2023-03-15T18:38:08.823Z,7.51
2023-03-15T18:40:37.402Z,7.41
2023-03-15T18:43:05.796Z,7.34
2023-03-15T18:45:36.511Z,7.30
2023-03-15T18:48:05.414Z,7.29
2023-03-15T18:50:34.814Z,7.31
2023-03-15T18:53:06.161Z,7.31
2023-03-15T18:55:35.250Z,7.31
2023-03-15T18:58:08.903Z,7.30
2023-03-15T19:00:37.807Z,7.31
2023-03-15T19:03:07.165Z,7.30
2023-03-15T19:05:38.279Z,7.32
2023-03-15T19:08:06.666Z,7.36
2023-03-15T19:10:34.952Z,7.35
2023-03-15T19:13:04.666Z,7.37
2023-03-15T19:15:33.435Z,7.40
2023-03-15T19:18:02.031Z,7.42
2023-03-15T19:20:30.357Z,7.42
2023-03-15T19:22:58.492Z,7.41
2023-03-15T19:25:26.691Z,7.39
2023-03-15T19:27:54.808Z,7.37
2023-03-15T19:30:23.368Z,7.34
2023-03-15T19:32:51.536Z,7.31
2023-03-15T19:35:21.610Z,7.30
2023-03-15T19:37:50.033Z,7.30
2023-03-15T19:40:20.037Z,7.27
2023-03-15T19:42:48.748Z,7.27
2023-03-15T19:45:18.219Z,7.24
2023-03-15T19:47:47.162Z,7.22
2023-03-15T19:50:16.226Z,7.18
2023-03-15T19:52:47.553Z,7.14
2023-03-15T19:55:20.721Z,7.11
2023-03-15T19:57:48.775Z,7.10
2023-03-15T20:00:18.989Z,7.07
2023-03-15T20:02:47.910Z,7.04
2023-03-15T20:05:19.479Z,7.01
2023-03-15T20:07:51.723Z,6.99
2023-03-15T20:10:21.085Z,6.99
2023-03-15T20:12:49.515Z,7.00
2023-03-15T20:15:19.316Z,7.01
2023-03-15T20:17:47.909Z,6.99
2023-03-15T20:20:16.398Z,6.95
2023-03-15T20:22:45.629Z,6.94
2023-03-15T20:25:19.353Z,6.93
2023-03-15T20:27:48.068Z,6.91
2023-03-15T20:30:17.764Z,6.89
2023-03-15T20:32:46.008Z,6.87
2023-03-15T20:35:14.269Z,6.83
2023-03-15T20:37:43.113Z,6.81
2023-03-15T20:40:14.664Z,6.77
2023-03-15T20:42:43.254Z,6.74
2023-03-15T20:45:13.833Z,6.68
2023-03-15T20:47:42.324Z,6.62
2023-03-15T20:50:13.096Z,6.54
2023-03-15T20:52:42.735Z,6.46
2023-03-15T20:55:12.398Z,6.39
2023-03-15T20:57:42.722Z,6.31
2023-03-15T21:00:18.616Z,6.24
2023-03-15T21:02:47.909Z,6.16
2023-03-15T21:05:17.578Z,6.07
2023-03-15T21:07:46.545Z,6.01
2023-03-15T21:10:14.890Z,5.92
2023-03-15T21:12:46.512Z,5.83
2023-03-15T21:15:17.807Z,5.76
2023-03-15T21:17:50.449Z,5.69
2023-03-15T21:20:19.176Z,5.67
2023-03-15T21:22:47.300Z,5.64
2023-03-15T21:25:16.899Z,5.59
2023-03-15T21:27:45.843Z,5.56
2023-03-15T21:30:14.186Z,5.54
2023-03-15T21:32:43.017Z,5.49
2023-03-15T21:35:12.147Z,5.42
2023-03-15T21:37:40.455Z,5.37
2023-03-15T21:40:11.942Z,5.31
2023-03-15T21:42:42.718Z,5.28
2023-03-15T21:45:12.384Z,5.24
2023-03-15T21:47:40.665Z,5.20
2023-03-15T21:50:11.651Z,5.16
2023-03-15T21:52:39.860Z,5.13
2023-03-15T21:55:09.013Z,5.09
2023-03-15T21:57:37.359Z,5.05
2023-03-15T22:00:11.802Z,5.03
2023-03-15T22:02:40.059Z,5.02
2023-03-15T22:05:12.064Z,5.03
2023-03-15T22:07:42.036Z,5.03
2023-03-15T22:10:11.247Z,5.03
2023-03-15T22:12:39.434Z,5.00
2023-03-15T22:15:08.519Z,4.95
2023-03-15T22:17:36.825Z,4.92
2023-03-15T22:20:12.881Z,4.89
2023-03-15T22:22:40.985Z,4.86
2023-03-15T22:25:09.750Z,4.83
2023-03-15T22:27:37.908Z,4.80
2023-03-15T22:30:07.360Z,4.76
2023-03-15T22:32:35.540Z,4.74
2023-03-15T22:35:04.081Z,4.69
2023-03-15T22:37:34.797Z,4.66
2023-03-15T22:40:04.915Z,4.64
2023-03-15T22:42:33.089Z,4.60
2023-03-15T22:45:01.492Z,4.53
2023-03-15T22:47:30.435Z,4.48
2023-03-15T22:49:59.807Z,4.45
2023-03-15T22:52:28.380Z,4.43
2023-03-15T22:54:56.517Z,4.39
2023-03-15T22:57:24.627Z,4.37
2023-03-15T22:59:52.750Z,4.32
2023-03-15T23:02:20.866Z,4.28
2023-03-15T23:04:49.074Z,4.24
2023-03-15T23:07:18.031Z,4.21
2023-03-15T23:09:46.228Z,4.20
2023-03-15T23:12:17.987Z,4.20
2023-03-15T23:14:46.973Z,4.18
2023-03-15T23:17:15.292Z,4.15
2023-03-15T23:19:43.662Z,4.14
2023-03-15T23:22:11.934Z,4.12
2023-03-15T23:24:40.368Z,4.11
2023-03-15T23:27:08.682Z,4.10
2023-03-15T23:29:52.859Z,4.08
2023-03-15T23:32:21.494Z,4.08
2023-03-15T23:34:49.740Z,4.07
2023-03-15T23:37:17.836Z,4.06
2023-03-15T23:39:46.240Z,4.05
2023-03-15T23:42:14.444Z,4.05
2023-03-15T23:44:43.423Z,4.04
2023-03-15T23:47:12.418Z,4.04
2023-03-15T23:49:40.519Z,4.03
2023-03-15T23:52:08.686Z,4.03
2023-03-15T23:54:41.250Z,4.03
2023-03-15T23:57:12.813Z,4.02
2023-03-15T23:59:42.094Z,3.99
